Peleus — V2FV2 — position and weather

sailwx.info

Track history (hours):
 
Tides and Currents Weather Stations Pressure Air Temp Water Temp Dewpoint Dewpoint Depression Visibility Wind Speed Wind Dir Waves Ship Positions

Peleus

Last reported at 2016-Sep-24 02:27 UTC. Time now 2016-Sep-25 12:18 UTC.
Position N 38°07' W 009°57'.

Length 88 m; draft 5.7 m.

Type: Cargo ship. MMSI: 305810000.

Date/timePositionNaut miles runAvg speedWind from/ knotsBaromVisibWave heightAir tempDewpointWater temp
2016-Sep-24 02:27N 38°07' W 009°57'9 8.6
2016-Sep-24 01:28N 38°15' W 009°60'8 9.0
2016-Sep-24 00:33N 38°23' W 010°02'  
2016-Sep-20 02:28N 49°45' W 003°34'29 9.8
2016-Sep-19 23:34N 49°59' W 002°55'92 9.2
2016-Sep-19 13:33N 50°25' W 000°37'10 9.2
2016-Sep-19 12:30N 50°28' W 000°22'8 7.9
2016-Sep-19 11:34N 50°30' W 000°11'13 6.6
2016-Sep-19 09:33N 50°33' E 000°09'18 8.3
2016-Sep-19 07:27N 50°39' E 000°35'38 9.7
2016-Sep-19 03:33N 51°01' E 001°23'7 6.6
2016-Sep-19 02:33N 51°06' E 001°31'11 5.3
2016-Sep-19 00:34N 51°13' E 001°43'84 9.1
2016-Sep-18 15:21N 52°18' E 003°08'5 6.9
2016-Sep-18 14:34N 52°22' E 003°13'101 8.4
2016-Sep-18 02:33N 53°35' E 005°08'10 9.9
2016-Sep-18 01:33N 53°39' E 005°24'10 9.7
2016-Sep-18 00:33N 53°42' E 005°39'18 9.0
2016-Sep-17 22:33N 53°47' E 006°08'8 7.8
2016-Sep-17 21:33N 53°50' E 006°21'7 7.3
2016-Sep-17 20:33N 53°51' E 006°33'10 7.5
2016-Sep-17 19:16N 53°54' E 006°49'56 9.8
2016-Sep-17 13:33N 53°59' E 008°23'10 9.9
2016-Sep-17 12:33N 53°56' E 008°39'13 6.6
2016-Sep-17 10:33N 53°51' E 008°60'6 5.9
2016-Sep-17 09:34N 53°54' E 009°09'1 1.2
2016-Sep-17 08:33N 53°54' E 009°10'8 8.0
2016-Sep-17 07:33N 54°01' E 009°18'37 5.2
2016-Sep-17 00:30N 54°22' E 010°09'53 7.6
2016-Sep-16 17:33N 54°28' E 011°39'18 8.9
2016-Sep-16 15:34N 54°28' E 012°10'26 8.6
2016-Sep-16 12:32N 54°46' E 012°40'26 8.6
2016-Sep-16 09:33N 54°46' E 013°25'16 7.8
2016-Sep-16 07:33N 54°35' E 013°44'33 8.3
2016-Sep-16 03:33N 54°07' E 014°14'8 8.5
2016-Sep-16 02:33N 53°58' E 014°16'15 7.7
2016-Sep-16 00:33N 53°44' E 014°26'17 8.5
2016-Sep-15 22:33N 53°28' E 014°36'4 4.0
2016-Sep-15 21:33N 53°24' E 014°36'0 0.0
2016-Sep-15 20:33N 53°24' E 014°36'0 0.0
2016-Sep-15 18:33N 53°24' E 014°36'0 0.0
2016-Sep-15 12:33N 53°24' E 014°36'0 0.0
2016-Sep-15 11:33N 53°24' E 014°36'47 6.6
2016-Sep-15 04:24N 54°09' E 014°12'6 7.4
2016-Sep-15 03:32N 54°15' E 014°08'15 7.6
2016-Sep-15 01:33N 54°26' E 013°51'23 7.6
2016-Sep-14 22:33N 54°45' E 013°28'8 8.3
2016-Sep-14 21:33N 54°45' E 013°14'31 7.9
2016-Sep-14 17:33N 54°36' E 012°22'8 8.1
2016-Sep-14 16:33N 54°29' E 012°15'23 7.7
2016-Sep-14 13:33N 54°27' E 011°36'8 8.4
2016-Sep-14 12:33N 54°31' E 011°23'16 7.8
2016-Sep-14 10:34N 54°34' E 010°57'8 7.9
2016-Sep-14 09:33N 54°33' E 010°43'8 8.4
2016-Sep-14 08:33N 54°32' E 010°29'8 8.5
2016-Sep-14 07:33N 54°28' E 010°16'7 7.2
2016-Sep-14 06:33N 54°22' E 010°09'5 1.7
2016-Sep-14 03:33N 54°21' E 009°60'  
Track history (hours):
 
Tides and Currents Weather Stations Pressure Air Temp Water Temp Dewpoint Dewpoint Depression Visibility Wind Speed Wind Dir Waves Ship Positions

Peleus

Last reported at 2016-Sep-24 02:27 UTC. Time now 2016-Sep-25 12:18 UTC.
Position N 38°07' W 009°57'.

Length 88 m; draft 5.7 m.

Type: Cargo ship. MMSI: 305810000.

Date/timePositionNaut miles runAvg speedWind from/ knotsBaromVisibWave heightAir tempDewpointWater temp
2016-Sep-24 02:27N 38°07' W 009°57'9 8.6
2016-Sep-24 01:28N 38°15' W 009°60'8 9.0
2016-Sep-24 00:33N 38°23' W 010°02'  
2016-Sep-20 02:28N 49°45' W 003°34'29 9.8
2016-Sep-19 23:34N 49°59' W 002°55'92 9.2
2016-Sep-19 13:33N 50°25' W 000°37'10 9.2
2016-Sep-19 12:30N 50°28' W 000°22'8 7.9
2016-Sep-19 11:34N 50°30' W 000°11'13 6.6
2016-Sep-19 09:33N 50°33' E 000°09'18 8.3
2016-Sep-19 07:27N 50°39' E 000°35'38 9.7
2016-Sep-19 03:33N 51°01' E 001°23'7 6.6
2016-Sep-19 02:33N 51°06' E 001°31'11 5.3
2016-Sep-19 00:34N 51°13' E 001°43'84 9.1
2016-Sep-18 15:21N 52°18' E 003°08'5 6.9
2016-Sep-18 14:34N 52°22' E 003°13'101 8.4
2016-Sep-18 02:33N 53°35' E 005°08'10 9.9
2016-Sep-18 01:33N 53°39' E 005°24'10 9.7
2016-Sep-18 00:33N 53°42' E 005°39'18 9.0
2016-Sep-17 22:33N 53°47' E 006°08'8 7.8
2016-Sep-17 21:33N 53°50' E 006°21'7 7.3
2016-Sep-17 20:33N 53°51' E 006°33'10 7.5
2016-Sep-17 19:16N 53°54' E 006°49'56 9.8
2016-Sep-17 13:33N 53°59' E 008°23'10 9.9
2016-Sep-17 12:33N 53°56' E 008°39'13 6.6
2016-Sep-17 10:33N 53°51' E 008°60'6 5.9
2016-Sep-17 09:34N 53°54' E 009°09'1 1.2
2016-Sep-17 08:33N 53°54' E 009°10'8 8.0
2016-Sep-17 07:33N 54°01' E 009°18'37 5.2
2016-Sep-17 00:30N 54°22' E 010°09'53 7.6
2016-Sep-16 17:33N 54°28' E 011°39'18 8.9
2016-Sep-16 15:34N 54°28' E 012°10'26 8.6
2016-Sep-16 12:32N 54°46' E 012°40'26 8.6
2016-Sep-16 09:33N 54°46' E 013°25'16 7.8
2016-Sep-16 07:33N 54°35' E 013°44'33 8.3
2016-Sep-16 03:33N 54°07' E 014°14'8 8.5
2016-Sep-16 02:33N 53°58' E 014°16'15 7.7
2016-Sep-16 00:33N 53°44' E 014°26'17 8.5
2016-Sep-15 22:33N 53°28' E 014°36'4 4.0
2016-Sep-15 21:33N 53°24' E 014°36'0 0.0
2016-Sep-15 20:33N 53°24' E 014°36'0 0.0
2016-Sep-15 18:33N 53°24' E 014°36'0 0.0
2016-Sep-15 12:33N 53°24' E 014°36'0 0.0
2016-Sep-15 11:33N 53°24' E 014°36'47 6.6
2016-Sep-15 04:24N 54°09' E 014°12'6 7.4
2016-Sep-15 03:32N 54°15' E 014°08'15 7.6
2016-Sep-15 01:33N 54°26' E 013°51'23 7.6
2016-Sep-14 22:33N 54°45' E 013°28'8 8.3
2016-Sep-14 21:33N 54°45' E 013°14'31 7.9
2016-Sep-14 17:33N 54°36' E 012°22'8 8.1
2016-Sep-14 16:33N 54°29' E 012°15'23 7.7
2016-Sep-14 13:33N 54°27' E 011°36'8 8.4
2016-Sep-14 12:33N 54°31' E 011°23'16 7.8
2016-Sep-14 10:34N 54°34' E 010°57'8 7.9
2016-Sep-14 09:33N 54°33' E 010°43'8 8.4
2016-Sep-14 08:33N 54°32' E 010°29'8 8.5
2016-Sep-14 07:33N 54°28' E 010°16'7 7.2
2016-Sep-14 06:33N 54°22' E 010°09'5 1.7
2016-Sep-14 03:33N 54°21' E 009°60'  

Dump ship's entire track history